x

Isle Of Shoals, Nh (iosn3) Weather Station

5:00am - Thu 23rd Oct 2014 All times are EDT. -4 hours from GMT.

  • Wind
    49mph, 55mph gusts
  • 空気 Temp 50°f
  • Sea Pressure 1005.1mb
  • Isle Of Shoals, Nh
  • Isle Of Shoals, Nh

More Historic Weather Station data

Upgrade to MSW Pro to gain access to the past 30 days of data for over 8000 Wavebouys and Weather Stations around the globe.

Join Pro

Comparision Forecast

View Surf forecast
   
Thu 10/23 5:00am 49 55 mph 1005.1mb 50f
4:00am 52 56 mph 1005.4mb 50f
3:00am 51 60 mph 1005.8mb 50f
2:00am 44 51 mph 1007.7mb 49f
1:00am 51 61 mph 1007.4mb 50f
12:00am 52 59 mph 1008.8mb 50f
Wed 10/22 11:00pm 49 60 mph 1010mb 49f
10:00pm 52 62 mph 1010.3mb 51f
9:00pm 41 49 mph 1011.6mb 51f
8:00pm 44 57 mph 1011.6mb 50f
7:00pm 46 56 mph 1011.5mb 51f
6:00pm 48 56 mph 1012mb 51f
5:00pm 44 49 mph 1012.6mb 49f
4:00pm 47 52 mph 1012.8mb 49f
3:00pm 48 55 mph 1013mb 50f
2:00pm 38 45 mph 1014.3mb 50f
1:00pm 43 46 mph 1014.2mb 50f
12:00pm 37 39 mph 1015.3mb 49f
11:00am 36 40 mph 1016.2mb 50f
10:00am 37 43 mph 1016.5mb 49f
9:00am 34 37 mph 1016.9mb 50f
8:00am 38 43 mph 1015.6mb 52f
7:00am 41 46 mph 1014.9mb 53f
6:00am 38 40 mph 1014.7mb 55f
5:00am 37 41 mph 1014.2mb 55f
4:00am 32 36 mph 1014mb 55f
3:00am 25 28 mph 1014.6mb 52f
2:00am 26 30 mph 1014.9mb 50f
1:00am 24 26 mph 1015.2mb 50f
12:00am 25 29 mph 1015.3mb 51f
Tue 10/21 11:00pm 25 28 mph 1015.3mb 51f
10:00pm 23 26 mph 1014.8mb 52f
9:00pm 20 21 mph 1014.3mb 53f
8:00pm 16 18 mph 1013.9mb 54f
7:00pm 16 17 mph 1013.9mb 54f
6:00pm 17 18 mph 1013.6mb 55f
5:00pm 9 10 mph 1013.6mb 56f
4:00pm 11 13 mph 1013.2mb 57f
3:00pm 13
mph
1013.6mb 57f
2:00pm 9
mph
1013.4mb 56f
1:00pm 13
mph
1013.6mb 57f
12:00pm 15 16 mph 1014.4mb 57f
11:00am 16 18 mph 1014.6mb 57f
10:00am 14 15 mph 1015mb 57f
9:00am 15 16 mph 1015.1mb 56f
8:00am 9 10 mph 1015mb 56f
7:00am 13 15 mph 1014.7mb 53f
6:00am 9 10 mph 1014.9mb 52f
5:00am 5 6 mph 1015.3mb 51f
4:00am 1 2 mph 1014.8mb 53f
3:00am 9 11 mph 1015.4mb 53f
2:00am 9 10 mph 1015.5mb 52f
1:00am 9 10 mph 1015.5mb 52f
12:00am 15 16 mph 1015.6mb 52f
Mon 10/20 11:00pm 20 21 mph 1015.3mb 53f
10:00pm 18 20 mph 1015.1mb 53f
9:00pm 21 23 mph 1015mb 54f
8:00pm 13 14 mph 1014.5mb 54f
7:00pm 14 16 mph 1014.4mb 54f
6:00pm 17 18 mph 1013.9mb 55f
5:00pm 14 16 mph 1013.6mb 55f
4:00pm 18 20 mph 1013.4mb 53f
3:00pm 8 10 mph 1013.9mb 51f
2:00pm 14 15 mph 1014.1mb 49f
1:00pm 18 21 mph 1014.8mb 47f
12:00pm 15 17 mph 1015.6mb 45f
11:00am 16 20 mph 1016mb 43f
10:00am 20 22 mph 1016.1mb 42f
9:00am 18 21 mph 1016.2mb 40f
8:00am 23 26 mph 1015.4mb 40f
7:00am 23 26 mph 1014.8mb 40f
6:00am 22 23 mph 1014.2mb 40f
5:00am 23 25 mph 1013.7mb 40f
4:00am 29 32 mph 1013.3mb 40f
3:00am 26 31 mph 1013.1mb 41f
2:00am 24 28 mph 1013.1mb 43f
1:00am 22 24 mph 1012.8mb 43f
12:00am 24 26 mph 1012.2mb 43f
Sun 10/19 11:00pm 22 25 mph 1012.1mb 45f
10:00pm 29 31 mph 1011.6mb 45f
9:00pm 31 36 mph 1011.3mb 46f
8:00pm 26 29 mph 1010.7mb 47f
7:00pm 30 32 mph 1010.2mb 47f
6:00pm 30 36 mph 1009.3mb 49f
5:00pm 30 33 mph 1008.6mb 49f
4:00pm 26 32 mph 1007.7mb 50f
3:00pm 20 22 mph 1007.3mb 51f
2:00pm 17 20 mph 1006.8mb 51f
1:00pm 21 26 mph 1005.9mb 51f
12:00pm 13 16 mph 1007.4mb 50f
11:00am 20 23 mph 1006.7mb 49f